Terminal Aerodrome Forecast
Issued by NWS Blacksburg, VA

Current Version | Previous Version | Graphics & Text | Print | Product List | Glossary On
Versions: 1 2 3 4 5 6 7 8 9 10 11 12 13 14 15 16 17 18 19 20 21 22 23 24 25
000
FTUS41 KRNK 010806 AAA
TAFBLF
TAF AMD
KBLF 010806Z 0108/0206 25005KT P6SM SKC
      TEMPO 0109/0111 4SM BR SCT007
     FM011300 34004KT P6SM SCT045
     FM011800 36005KT P6SM VCSH BKN050=

USA.gov is the U.S. government's official web portal to all federal, state and local government web resources and services.